logo
Search for airport 
image banner adimage banner adimage banner ad
image banner ad

SNCS - Campos Sales

Located in Campos Sales, Brazil

ICAO - SNCS, IATA -

Data provided by Airmate  

General information

Coordinates: S7°2'58" W40°21'51"
Elevation is 2018 feet MSL.
Magnetic variation is -21.816666667° East
View others Airports in Ceará

Operational data

Special qualification required
Current time UTC:
Current local time:
Weather at : - ( 0 km )
METAR: PAKX 152035Z AUTO 00000KT 10SM OVC049 08/06 A2978 RMK AO2
View NOTAMs / SUP AIP / TFR affecting this airport [VIEW]
Communications frequencies: [VIEW]

Runways:

RWY identifierQFULength (ft)Width (ft)SurfaceLDA (ft)
11393798ASPH
29393798ASPH

Airport contact information

Address: Campos Sales Brazil

Satellite view of SNCS